createdAt,value
2023-01-17T00:02:09.870Z,22.55
2023-01-17T00:04:58.193Z,22.70
2023-01-17T00:10:28.900Z,21.15
2023-01-17T00:12:59.306Z,22.58
2023-01-17T00:15:30.926Z,26.15
2023-01-17T00:18:00.250Z,21.25
2023-01-17T00:20:47.950Z,22.83
2023-01-17T00:23:35.657Z,21.83
2023-01-17T00:26:05.054Z,20.92
2023-01-17T00:28:34.481Z,22.45
2023-01-17T00:31:06.403Z,24.50
2023-01-17T00:33:33.976Z,21.90
2023-01-17T00:36:02.173Z,20.45
2023-01-17T00:38:31.368Z,23.02
2023-01-17T00:41:02.612Z,22.15
2023-01-17T00:43:49.174Z,21.23
2023-01-17T00:46:37.009Z,21.67
2023-01-17T00:49:23.541Z,33.03
2023-01-17T00:52:09.814Z,23.40
2023-01-17T00:54:55.901Z,28.25
2023-01-17T00:57:41.907Z,24.58
2023-01-17T01:00:28.698Z,26.45
2023-01-17T01:03:15.943Z,23.15
2023-01-17T01:06:03.624Z,20.17
2023-01-17T01:08:49.595Z,25.23
2023-01-17T01:11:38.689Z,20.27
2023-01-17T01:14:26.277Z,25.60
2023-01-17T01:17:11.992Z,25.58
2023-01-17T01:19:59.193Z,27.15
2023-01-17T01:22:45.090Z,22.58
2023-01-17T01:25:31.187Z,23.10
2023-01-17T01:28:22.826Z,21.23
2023-01-17T01:31:08.997Z,23.00
2023-01-17T01:33:37.604Z,25.58
2023-01-17T01:36:09.799Z,22.25
2023-01-17T01:38:38.295Z,27.42
2023-01-17T01:41:07.330Z,24.10
2023-01-17T01:43:45.223Z,24.40
2023-01-17T01:46:18.152Z,26.02
2023-01-17T01:48:51.998Z,27.67
2023-01-17T01:51:26.595Z,26.92
2023-01-17T01:54:00.280Z,26.73
2023-01-17T01:56:30.533Z,26.58
2023-01-17T01:59:04.315Z,28.27
2023-01-17T02:01:37.325Z,22.95
2023-01-17T02:04:10.111Z,28.20
2023-01-17T02:06:43.342Z,28.50
2023-01-17T02:09:17.679Z,28.95
2023-01-17T02:11:48.098Z,22.45
2023-01-17T02:14:17.793Z,27.17
2023-01-17T02:17:04.264Z,24.70
2023-01-17T02:19:58.239Z,28.13
2023-01-17T02:22:50.522Z,23.60
2023-01-17T02:25:57.703Z,30.52
2023-01-17T02:28:43.198Z,24.35
2023-01-17T02:31:17.619Z,27.80
2023-01-17T02:33:56.705Z,35.60
2023-01-17T02:36:31.241Z,24.73
2023-01-17T02:39:06.096Z,27.25
2023-01-17T02:41:38.340Z,27.27
2023-01-17T02:44:10.193Z,21.45
2023-01-17T02:46:47.191Z,26.13
2023-01-17T02:49:17.334Z,29.88
2023-01-17T02:52:11.955Z,28.88
2023-01-17T02:55:01.391Z,23.38
2023-01-17T02:57:59.758Z,25.80
2023-01-17T03:00:39.370Z,27.77
2023-01-17T03:03:22.357Z,28.92
2023-01-17T03:05:56.033Z,23.77
2023-01-17T03:08:25.625Z,34.00
2023-01-17T03:10:54.421Z,29.35
2023-01-17T03:13:23.166Z,27.80
2023-01-17T03:15:51.934Z,24.13
2023-01-17T03:18:21.952Z,21.67
2023-01-17T03:20:50.428Z,29.20
2023-01-17T03:23:18.853Z,27.35
2023-01-17T03:25:47.247Z,28.02
2023-01-17T03:28:15.708Z,27.23
2023-01-17T03:30:45.194Z,23.35
2023-01-17T03:33:13.688Z,26.08
2023-01-17T03:35:43.463Z,19.77
2023-01-17T03:38:12.069Z,31.00
2023-01-17T03:40:40.517Z,28.30
2023-01-17T03:43:09.014Z,23.00
2023-01-17T03:48:06.438Z,22.10
2023-01-17T03:50:34.958Z,25.38
2023-01-17T03:53:04.850Z,17.63
2023-01-17T03:55:33.245Z,25.25
2023-01-17T03:58:01.595Z,20.15
2023-01-17T04:00:30.029Z,27.27
2023-01-17T04:02:58.540Z,25.33
2023-01-17T04:05:27.151Z,27.10
2023-01-17T04:10:25.125Z,22.17
2023-01-17T04:12:53.644Z,18.48
2023-01-17T04:15:22.057Z,23.63
2023-01-17T04:17:50.794Z,30.33
2023-01-17T04:20:28.608Z,24.20
2023-01-17T04:22:57.586Z,21.10
2023-01-17T04:25:29.996Z,27.75
2023-01-17T04:27:58.811Z,23.27
2023-01-17T04:30:28.059Z,28.67
2023-01-17T04:32:57.407Z,23.52
2023-01-17T04:35:26.570Z,19.23
2023-01-17T04:37:55.189Z,28.17
2023-01-17T04:42:54.409Z,17.67
2023-01-17T04:45:23.038Z,21.02
2023-01-17T04:50:21.113Z,29.23
2023-01-17T04:52:49.624Z,30.95
2023-01-17T04:55:18.147Z,27.38
2023-01-17T05:00:17.877Z,21.33
2023-01-17T05:02:46.532Z,27.05
2023-01-17T05:07:43.394Z,25.20
2023-01-17T05:12:40.958Z,27.75
2023-01-17T05:20:08.834Z,23.13
2023-01-17T05:22:37.373Z,25.75
2023-01-17T05:25:06.207Z,25.60
2023-01-17T05:27:34.735Z,28.67
2023-01-17T05:32:32.091Z,23.75
2023-01-17T05:37:31.801Z,21.67
2023-01-17T05:40:00.233Z,25.27
2023-01-17T05:42:29.154Z,32.58
2023-01-17T05:44:57.550Z,18.13
2023-01-17T05:47:26.128Z,22.88
2023-01-17T05:49:54.582Z,28.85
2023-01-17T05:52:24.490Z,24.73
2023-01-17T05:54:53.003Z,21.48
2023-01-17T05:57:21.446Z,18.27
2023-01-17T05:59:49.831Z,23.85
2023-01-17T06:02:18.424Z,22.52
2023-01-17T06:07:15.063Z,17.17
2023-01-17T06:09:45.039Z,21.13
2023-01-17T06:12:13.449Z,22.10
2023-01-17T06:14:41.853Z,20.08
2023-01-17T06:17:10.416Z,24.70
2023-01-17T06:19:38.799Z,13.13
2023-01-17T06:22:07.205Z,24.80
2023-01-17T06:24:35.879Z,21.85
2023-01-17T06:29:33.938Z,20.17
2023-01-17T06:32:03.116Z,20.98
2023-01-17T06:34:31.547Z,23.33
2023-01-17T06:36:59.968Z,21.48
2023-01-17T06:39:28.478Z,21.80
2023-01-17T06:41:57.058Z,21.60
2023-01-17T06:46:57.261Z,19.25
2023-01-17T06:49:25.719Z,21.80
2023-01-17T06:51:54.123Z,20.13
2023-01-17T06:54:22.611Z,16.98
2023-01-17T06:56:51.017Z,20.60
2023-01-17T06:59:19.460Z,17.92
2023-01-17T07:01:49.412Z,19.23
2023-01-17T07:04:18.032Z,20.33
2023-01-17T07:09:14.690Z,22.30
2023-01-17T07:11:45.388Z,22.98
2023-01-17T07:14:15.492Z,16.13
2023-01-17T07:16:46.243Z,23.50
2023-01-17T07:19:16.381Z,18.05
2023-01-17T07:21:44.971Z,20.70
2023-01-17T07:24:13.501Z,20.92
2023-01-17T07:26:41.937Z,22.45
2023-01-17T07:29:10.373Z,24.83
2023-01-17T07:31:40.565Z,18.45
2023-01-17T07:34:09.153Z,21.63
2023-01-17T07:36:39.146Z,18.08
2023-01-17T07:39:07.678Z,23.38
2023-01-17T07:41:41.485Z,17.27
2023-01-17T07:44:11.762Z,23.45
2023-01-17T07:46:40.339Z,15.20
2023-01-17T07:49:08.942Z,26.23
2023-01-17T07:54:07.198Z,23.25
2023-01-17T07:56:36.077Z,21.42
2023-01-17T07:59:04.888Z,20.88
2023-01-17T08:01:33.896Z,24.17
2023-01-17T08:04:08.429Z,23.58
2023-01-17T08:06:42.419Z,21.90
2023-01-17T08:09:13.340Z,26.27
2023-01-17T08:11:46.665Z,25.38
2023-01-17T08:14:39.071Z,23.15
2023-01-17T08:17:08.229Z,26.70
2023-01-17T08:19:37.254Z,22.60
2023-01-17T08:22:09.715Z,23.30
2023-01-17T08:24:38.991Z,23.23
2023-01-17T08:27:09.080Z,26.23
2023-01-17T08:29:42.185Z,21.90
2023-01-17T08:32:10.760Z,26.88
2023-01-17T08:34:39.304Z,27.63
2023-01-17T08:37:09.123Z,25.48
2023-01-17T08:39:40.579Z,32.58
2023-01-17T08:42:09.155Z,24.65
2023-01-17T08:44:41.018Z,28.58
2023-01-17T08:47:11.978Z,36.53
2023-01-17T08:49:40.999Z,27.27
2023-01-17T08:52:18.859Z,26.98
2023-01-17T08:54:57.690Z,31.38
2023-01-17T08:58:30.657Z,31.98
2023-01-17T09:01:26.358Z,34.30
2023-01-17T09:04:01.137Z,25.92
2023-01-17T09:06:30.245Z,24.88
2023-01-17T09:09:00.314Z,28.95
2023-01-17T09:11:28.943Z,32.33
2023-01-17T09:13:57.499Z,26.13
2023-01-17T09:18:56.221Z,26.27
2023-01-17T09:21:26.148Z,34.80
2023-01-17T09:24:05.771Z,29.08
2023-01-17T09:26:45.513Z,34.58
2023-01-17T09:29:17.874Z,36.25
2023-01-17T09:31:48.303Z,44.70
2023-01-17T09:34:18.692Z,34.20
2023-01-17T09:36:47.802Z,31.10
2023-01-17T09:39:16.411Z,30.25
2023-01-17T09:44:28.013Z,34.03
2023-01-17T09:47:01.001Z,31.05
2023-01-17T09:49:38.059Z,23.88
2023-01-17T09:52:08.460Z,33.25
2023-01-17T09:54:40.240Z,30.55
2023-01-17T09:57:30.021Z,34.80
2023-01-17T10:00:07.860Z,29.85
2023-01-17T10:02:55.962Z,31.35
2023-01-17T10:05:36.582Z,27.98
2023-01-17T10:08:18.004Z,29.10
2023-01-17T10:11:00.027Z,27.65
2023-01-17T10:13:42.842Z,29.92
2023-01-17T10:16:26.525Z,29.08
2023-01-17T10:19:16.612Z,21.80
2023-01-17T10:22:02.368Z,26.80
2023-01-17T10:24:59.008Z,26.13
2023-01-17T10:27:31.751Z,32.28
2023-01-17T10:30:13.856Z,30.30
2023-01-17T10:32:49.364Z,29.65
2023-01-17T10:35:23.279Z,31.98
2023-01-17T10:37:59.099Z,30.90
2023-01-17T10:40:38.535Z,31.42
2023-01-17T10:43:18.013Z,31.85
2023-01-17T10:45:54.593Z,31.08
2023-01-17T10:48:35.021Z,26.90
2023-01-17T10:51:15.881Z,34.75
2023-01-17T10:53:56.155Z,32.72
2023-01-17T10:56:28.521Z,34.42
2023-01-17T10:59:22.959Z,29.65
2023-01-17T11:01:53.048Z,39.35
2023-01-17T11:04:24.950Z,26.35
2023-01-17T11:07:12.448Z,35.40
2023-01-17T11:09:42.239Z,36.27
2023-01-17T11:12:20.658Z,37.33
2023-01-17T11:15:07.596Z,31.92
2023-01-17T11:17:39.989Z,40.60
2023-01-17T11:20:17.264Z,39.03
2023-01-17T11:22:50.191Z,46.58
2023-01-17T11:25:23.321Z,31.38
2023-01-17T11:28:01.632Z,39.95
2023-01-17T11:30:30.919Z,37.30
2023-01-17T11:33:04.307Z,35.45
2023-01-17T11:35:35.560Z,37.30
2023-01-17T11:38:13.390Z,33.13
2023-01-17T11:40:44.024Z,37.78
2023-01-17T11:43:23.263Z,39.03
2023-01-17T11:46:17.153Z,32.95
2023-01-17T11:48:55.046Z,34.10
2023-01-17T11:51:28.170Z,35.67
2023-01-17T11:54:08.671Z,39.42
2023-01-17T11:56:38.370Z,33.95
2023-01-17T11:59:31.686Z,30.65
2023-01-17T12:02:38.355Z,37.35
2023-01-17T12:05:29.405Z,33.15
2023-01-17T12:08:10.118Z,30.60
2023-01-17T12:10:47.771Z,33.40
2023-01-17T12:13:44.564Z,34.00
2023-01-17T12:16:33.823Z,37.20
2023-01-17T12:19:15.377Z,39.17
2023-01-17T12:26:36.348Z,26.10
2023-01-17T12:29:42.277Z,39.60
2023-01-17T12:32:45.736Z,30.55
2023-01-17T12:35:19.184Z,43.13
2023-01-17T12:38:03.721Z,40.35
2023-01-17T12:40:37.826Z,30.20
2023-01-17T12:43:18.992Z,33.55
2023-01-17T12:45:50.582Z,34.05
2023-01-17T12:48:20.747Z,39.33
2023-01-17T12:50:55.435Z,38.90
2023-01-17T12:53:40.621Z,39.60
2023-01-17T12:56:15.811Z,36.88
2023-01-17T12:58:48.631Z,37.28
2023-01-17T13:01:30.944Z,33.10
2023-01-17T13:04:11.185Z,35.97
2023-01-17T13:06:53.370Z,37.65
2023-01-17T13:09:24.996Z,29.23
2023-01-17T13:11:58.263Z,34.45
2023-01-17T13:14:28.517Z,33.97
2023-01-17T13:17:00.550Z,32.70
2023-01-17T13:19:42.250Z,36.97
2023-01-17T13:22:18.307Z,35.22
2023-01-17T13:24:56.647Z,36.67
2023-01-17T13:27:55.944Z,30.80
2023-01-17T13:30:52.663Z,35.42
2023-01-17T13:33:42.417Z,31.90
2023-01-17T13:36:28.608Z,34.60
2023-01-17T13:39:18.339Z,36.90
2023-01-17T13:41:51.851Z,33.28
2023-01-17T13:44:24.353Z,28.23
2023-01-17T13:47:00.907Z,30.33
2023-01-17T13:49:48.567Z,30.88
2023-01-17T13:52:33.516Z,32.67
2023-01-17T13:55:04.223Z,32.00
2023-01-17T13:57:42.285Z,28.73
2023-01-17T14:00:59.242Z,29.33
2023-01-17T14:04:01.327Z,27.02
2023-01-17T14:06:40.762Z,28.27
2023-01-17T14:09:17.026Z,34.40
2023-01-17T14:11:54.718Z,30.77
2023-01-17T14:14:51.349Z,33.60
2023-01-17T14:17:57.110Z,31.80
2023-01-17T14:21:04.607Z,30.30
2023-01-17T14:24:03.941Z,34.83
2023-01-17T14:26:42.557Z,27.70
2023-01-17T14:29:56.963Z,25.55
2023-01-17T14:32:30.554Z,29.20
2023-01-17T14:34:59.958Z,30.50
2023-01-17T14:37:39.433Z,32.40
2023-01-17T14:40:21.940Z,28.75
2023-01-17T14:42:59.291Z,31.00
2023-01-17T14:45:30.319Z,31.00
2023-01-17T14:48:00.139Z,25.98
2023-01-17T14:50:31.010Z,27.20
2023-01-17T14:53:28.143Z,26.20
2023-01-17T14:56:00.907Z,34.35
2023-01-17T14:58:32.126Z,34.22
2023-01-17T15:01:03.017Z,30.08
2023-01-17T15:03:36.847Z,29.95
2023-01-17T15:06:13.558Z,28.17
2023-01-17T15:08:44.481Z,29.65
2023-01-17T15:11:21.358Z,29.20
2023-01-17T15:13:54.407Z,28.23
2023-01-17T15:16:28.746Z,23.63
2023-01-17T15:18:58.568Z,28.05
2023-01-17T15:21:30.286Z,35.75
2023-01-17T15:24:02.524Z,26.60
2023-01-17T15:26:42.296Z,25.45
2023-01-17T15:29:17.624Z,29.73
2023-01-17T15:31:48.494Z,31.02
2023-01-17T15:34:26.412Z,34.42
2023-01-17T15:36:58.074Z,35.67
2023-01-17T15:39:30.451Z,27.05
2023-01-17T15:42:03.473Z,29.30
2023-01-17T15:44:48.515Z,33.13
2023-01-17T15:47:32.598Z,34.90
2023-01-17T15:50:02.669Z,33.10
2023-01-17T15:52:32.283Z,29.38
2023-01-17T15:55:13.747Z,29.88
2023-01-17T15:57:48.131Z,27.95
2023-01-17T16:00:22.770Z,28.33
2023-01-17T16:02:56.047Z,35.92
2023-01-17T16:05:35.404Z,31.35
2023-01-17T16:08:30.689Z,28.70
2023-01-17T16:11:02.563Z,23.15
2023-01-17T16:13:35.824Z,31.88
2023-01-17T16:16:13.027Z,28.77
2023-01-17T16:18:42.911Z,23.40
2023-01-17T16:21:26.748Z,27.30
2023-01-17T16:23:56.601Z,29.15
2023-01-17T16:26:26.279Z,31.23
2023-01-17T16:28:56.742Z,25.67
2023-01-17T16:31:25.713Z,29.63
2023-01-17T16:33:56.776Z,29.05
2023-01-17T16:36:25.550Z,24.65
2023-01-17T16:44:05.667Z,30.77
2023-01-17T16:46:38.222Z,26.27
2023-01-17T16:49:07.563Z,23.48
2023-01-17T16:51:36.270Z,24.85
2023-01-17T16:56:36.524Z,25.63
2023-01-17T17:01:36.036Z,34.55
2023-01-17T17:04:04.962Z,25.45
2023-01-17T17:06:34.629Z,25.17
2023-01-17T17:09:03.796Z,26.38
2023-01-17T17:11:32.450Z,26.88
2023-01-17T17:16:33.065Z,23.15
2023-01-17T17:19:04.512Z,32.85
2023-01-17T17:21:34.459Z,25.38
2023-01-17T17:24:03.604Z,27.10
2023-01-17T17:26:35.421Z,30.67
2023-01-17T17:29:10.658Z,27.92
2023-01-17T17:31:42.649Z,30.67
2023-01-17T17:34:15.281Z,32.90
2023-01-17T17:36:44.878Z,31.05
2023-01-17T17:39:15.956Z,31.40
2023-01-17T17:41:45.975Z,27.65
2023-01-17T17:44:15.318Z,25.63
2023-01-17T17:46:49.577Z,25.85
2023-01-17T17:49:18.525Z,26.75
2023-01-17T17:51:47.810Z,22.30
2023-01-17T17:54:18.174Z,28.52
2023-01-17T17:56:48.749Z,27.02
2023-01-17T17:59:19.818Z,23.88
2023-01-17T18:01:50.656Z,27.83
2023-01-17T18:04:21.922Z,28.08
2023-01-17T18:06:51.011Z,28.98
2023-01-17T18:09:22.158Z,26.92
2023-01-17T18:11:50.908Z,33.03
2023-01-17T18:16:52.946Z,28.33
2023-01-17T18:19:24.241Z,21.17
2023-01-17T18:21:53.954Z,25.73
2023-01-17T18:24:24.679Z,25.20
2023-01-17T18:26:54.431Z,20.42
2023-01-17T18:29:24.305Z,22.17
2023-01-17T18:31:55.632Z,26.40
2023-01-17T18:34:27.334Z,22.15
2023-01-17T18:36:56.851Z,24.50
2023-01-17T18:39:28.278Z,28.90
2023-01-17T18:41:57.895Z,25.20
2023-01-17T18:44:27.498Z,31.33
2023-01-17T18:47:02.347Z,29.13
2023-01-17T18:49:32.849Z,23.02
2023-01-17T18:52:02.022Z,26.40
2023-01-17T18:54:32.332Z,17.92
2023-01-17T18:57:01.113Z,24.70
2023-01-17T19:02:00.225Z,20.05
2023-01-17T19:04:31.875Z,26.33
2023-01-17T19:07:00.998Z,22.23
2023-01-17T19:09:32.507Z,25.35
2023-01-17T19:12:01.390Z,19.73
2023-01-17T19:17:03.280Z,18.65
2023-01-17T19:19:33.837Z,25.58
2023-01-17T19:22:03.306Z,21.75
2023-01-17T19:24:32.428Z,25.27
2023-01-17T19:27:02.943Z,23.60
2023-01-17T19:29:32.433Z,20.67
2023-01-17T19:32:02.693Z,26.13
2023-01-17T19:34:31.558Z,19.75
2023-01-17T19:37:01.677Z,24.58
2023-01-17T19:39:31.563Z,21.23
2023-01-17T19:42:00.669Z,26.20
2023-01-17T19:44:32.087Z,20.25
2023-01-17T19:47:03.009Z,26.25
2023-01-17T19:49:36.347Z,23.20
2023-01-17T19:52:06.146Z,23.92
2023-01-17T19:54:37.459Z,22.90
2023-01-17T19:57:06.534Z,20.45
2023-01-17T19:59:35.425Z,26.35
2023-01-17T20:02:06.101Z,29.50
2023-01-17T20:04:35.086Z,26.50
2023-01-17T20:07:06.089Z,22.30
2023-01-17T20:09:36.175Z,29.55
2023-01-17T20:12:05.263Z,22.92
2023-01-17T20:14:34.379Z,26.65
2023-01-17T20:17:05.776Z,24.70
2023-01-17T20:19:34.712Z,25.70
2023-01-17T20:22:05.682Z,24.52
2023-01-17T20:24:34.581Z,24.33
2023-01-17T20:27:04.071Z,22.00
2023-01-17T20:29:35.436Z,26.67
2023-01-17T20:32:07.395Z,29.05
2023-01-17T20:34:45.406Z,27.98
2023-01-17T20:37:17.537Z,23.95
2023-01-17T20:39:48.468Z,24.70
2023-01-17T20:42:23.146Z,30.65
2023-01-17T20:44:54.301Z,21.30
2023-01-17T20:47:29.924Z,19.85
2023-01-17T20:50:04.761Z,23.90
2023-01-17T20:52:35.899Z,23.85
2023-01-17T20:55:10.012Z,27.30
2023-01-17T20:57:40.842Z,25.58
2023-01-17T21:00:15.157Z,34.70
2023-01-17T21:03:00.855Z,32.67
2023-01-17T21:05:34.119Z,24.30
2023-01-17T21:08:04.251Z,24.95
2023-01-17T21:10:36.602Z,22.40
2023-01-17T21:13:06.278Z,23.98
2023-01-17T21:15:48.804Z,26.50
2023-01-17T21:18:28.370Z,28.02
2023-01-17T21:21:08.780Z,24.95
2023-01-17T21:24:02.613Z,25.80
2023-01-17T21:26:39.289Z,17.65
2023-01-17T21:29:18.477Z,28.67
2023-01-17T21:31:54.975Z,28.58
2023-01-17T21:34:28.583Z,23.65
2023-01-17T21:37:00.826Z,25.13
2023-01-17T21:39:31.435Z,23.50
2023-01-17T21:42:00.429Z,23.10
2023-01-17T21:44:36.593Z,25.00
2023-01-17T21:47:05.674Z,21.27
2023-01-17T21:49:36.271Z,18.98
2023-01-17T21:52:19.456Z,22.60
2023-01-17T21:55:11.452Z,24.65
2023-01-17T21:58:00.459Z,17.02
2023-01-17T22:00:29.685Z,23.60
2023-01-17T22:02:59.137Z,25.20
2023-01-17T22:05:29.829Z,19.60
2023-01-17T22:08:15.363Z,22.15
2023-01-17T22:10:47.233Z,24.80
2023-01-17T22:13:18.009Z,24.92
2023-01-17T22:15:49.805Z,26.15
2023-01-17T22:18:18.953Z,24.90
2023-01-17T22:20:49.863Z,22.52
2023-01-17T22:23:18.779Z,19.73
2023-01-17T22:25:47.685Z,28.65
2023-01-17T22:28:17.287Z,26.50
2023-01-17T22:30:47.114Z,22.83
2023-01-17T22:33:16.063Z,25.08
2023-01-17T22:35:45.043Z,26.13
2023-01-17T22:38:15.113Z,23.05
2023-01-17T22:40:43.971Z,27.98
2023-01-17T22:43:12.788Z,28.40
2023-01-17T22:45:41.891Z,25.08
2023-01-17T22:48:11.177Z,20.20
2023-01-17T22:50:40.424Z,21.75
2023-01-17T22:53:10.609Z,22.90
2023-01-17T22:55:41.061Z,23.98
2023-01-17T22:58:10.083Z,23.80
2023-01-17T23:00:39.004Z,23.33
2023-01-17T23:03:07.932Z,26.10
2023-01-17T23:05:46.746Z,26.58
2023-01-17T23:08:15.431Z,28.45
2023-01-17T23:13:31.935Z,25.23
2023-01-17T23:16:23.866Z,29.38
2023-01-17T23:19:10.077Z,24.88
2023-01-17T23:21:56.317Z,27.13
2023-01-17T23:24:25.512Z,27.33
2023-01-17T23:27:12.280Z,24.90
2023-01-17T23:29:40.980Z,25.13
2023-01-17T23:34:38.233Z,25.98
2023-01-17T23:37:06.955Z,25.80
2023-01-17T23:44:51.768Z,23.42
2023-01-17T23:47:20.911Z,24.10
2023-01-17T23:49:50.160Z,24.95
2023-01-17T23:52:19.211Z,24.77
2023-01-17T23:54:49.661Z,27.10
2023-01-17T23:57:20.175Z,27.85
2023-01-17T23:59:48.941Z,25.20
